Time;durP1;ratioP1;P1;durP2;ratioP2;P2;SDS_P1;SDS_P2;PMS_P1;PMS_P2;Temp;Humidity;BMP_temperature;BMP_pressure;BME280_temperature;BME280_humidity;BME280_pressure;Samples;Min_cycle;Max_cycle;Signal;HPM_P1;HPM_P2
2022/09/26 00:00:40;;;;;;;2.37;1.30;;;;;;;;;;5062500;27;87443;-62
2022/09/26 00:03:08;;;;;;;1.33;0.70;;;;;;;;;;5062969;27;88953;-62
2022/09/26 00:05:37;;;;;;;2.23;1.00;;;;;;;;;;5063110;27;88568;-62
2022/09/26 00:08:05;;;;;;;1.70;0.87;;;;;;;;;;5061741;27;87037;-62
2022/09/26 00:10:33;;;;;;;1.23;0.93;;;;;;;;;;5044019;28;87299;-62
2022/09/26 00:13:02;;;;;;;1.13;1.03;;;;;;;;;;5053993;27;89914;-61
2022/09/26 00:15:31;;;;;;;0.90;0.70;;;;;;;;;;5063436;27;91571;-61
2022/09/26 00:17:59;;;;;;;0.63;0.63;;;;;;;;;;5062714;27;87130;-62
2022/09/26 00:20:28;;;;;;;2.40;0.90;;;;;;;;;;5063004;27;86981;-62
2022/09/26 00:22:56;;;;;;;0.97;0.70;;;;;;;;;;5057011;27;89411;-62
2022/09/26 00:25:25;;;;;;;0.83;0.57;;;;;;;;;;5062188;27;88449;-62
2022/09/26 00:27:54;;;;;;;0.87;0.50;;;;;;;;;;5062239;27;87263;-62
2022/09/26 00:30:22;;;;;;;0.70;0.70;;;;;;;;;;5043431;28;86360;-62
2022/09/26 00:32:51;;;;;;;1.43;0.87;;;;;;;;;;5046760;27;90461;-61
2022/09/26 00:35:20;;;;;;;1.20;0.80;;;;;;;;;;5063564;27;88471;-62
2022/09/26 00:37:48;;;;;;;0.60;0.50;;;;;;;;;;5063287;27;87898;-62
2022/09/26 00:40:16;;;;;;;1.00;0.80;;;;;;;;;;5059324;27;86933;-62
2022/09/26 00:42:45;;;;;;;0.80;0.80;;;;;;;;;;5043211;28;88457;-61
2022/09/26 00:45:13;;;;;;;0.50;0.50;;;;;;;;;;5043570;28;87739;-64
2022/09/26 00:47:43;;;;;;;2.37;1.03;;;;;;;;;;5047086;27;87047;-62
2022/09/26 00:50:14;;;;;;;1.83;0.80;;;;;;;;;;5063516;27;87042;-61
2022/09/26 00:52:44;;;;;;;1.80;0.90;;;;;;;;;;5062928;27;87681;-61
2022/09/26 00:55:13;;;;;;;1.37;0.70;;;;;;;;;;5063506;27;87818;-62
2022/09/26 00:57:42;;;;;;;0.53;0.50;;;;;;;;;;5061129;27;88248;-61
2022/09/26 01:00:13;;;;;;;0.70;0.70;;;;;;;;;;5062172;27;88982;-61
2022/09/26 01:02:41;;;;;;;0.97;0.67;;;;;;;;;;5042088;28;90113;-62
2022/09/26 01:05:10;;;;;;;0.70;0.70;;;;;;;;;;5044702;27;89976;-61
2022/09/26 01:07:40;;;;;;;1.50;0.70;;;;;;;;;;5042882;27;87035;-61
2022/09/26 01:10:09;;;;;;;1.13;0.77;;;;;;;;;;5042726;27;87101;-61
2022/09/26 01:12:37;;;;;;;0.63;0.50;;;;;;;;;;5040809;27;89061;-61
2022/09/26 01:15:07;;;;;;;0.60;0.60;;;;;;;;;;5042162;28;88927;-62
2022/09/26 01:17:36;;;;;;;0.67;0.57;;;;;;;;;;5041470;28;87145;-64
2022/09/26 01:20:08;;;;;;;0.60;0.57;;;;;;;;;;5040449;27;86384;-62
2022/09/26 01:22:54;;;;;;;0.60;0.60;;;;;;;;;;5045352;27;88902;-61
2022/09/26 01:25:24;;;;;;;0.93;0.63;;;;;;;;;;4998615;27;88807;-62
2022/09/26 01:27:55;;;;;;;0.57;0.47;;;;;;;;;;5042561;27;88796;-63
2022/09/26 01:30:25;;;;;;;0.40;0.40;;;;;;;;;;5058517;27;87090;-62
2022/09/26 01:33:12;;;;;;;0.50;0.50;;;;;;;;;;5052872;27;88713;-61
2022/09/26 01:35:44;;;;;;;1.47;0.50;;;;;;;;;;5043600;27;88330;-62
2022/09/26 01:38:14;;;;;;;0.97;0.97;;;;;;;;;;5040483;27;87355;-62
2022/09/26 01:40:43;;;;;;;1.17;0.60;;;;;;;;;;5041329;27;87124;-62
2022/09/26 01:43:14;;;;;;;1.70;0.70;;;;;;;;;;5045046;27;88879;-61
2022/09/26 01:45:45;;;;;;;1.13;0.73;;;;;;;;;;5045105;27;88830;-61
2022/09/26 01:48:17;;;;;;;1.10;0.60;;;;;;;;;;5042964;27;87035;-61
2022/09/26 01:50:46;;;;;;;0.50;0.50;;;;;;;;;;5043097;27;87008;-62
2022/09/26 01:53:15;;;;;;;0.47;0.47;;;;;;;;;;5051135;27;90287;-62
2022/09/26 01:55:45;;;;;;;0.50;0.50;;;;;;;;;;5058437;27;90070;-63
2022/09/26 01:58:14;;;;;;;3.93;0.70;;;;;;;;;;5038016;27;87266;-62
2022/09/26 02:00:43;;;;;;;2.10;0.63;;;;;;;;;;5041232;27;87047;-62
2022/09/26 02:03:13;;;;;;;0.60;0.40;;;;;;;;;;5026665;27;88993;-62
2022/09/26 02:05:42;;;;;;;0.70;0.70;;;;;;;;;;5039878;27;88508;-61
2022/09/26 02:08:11;;;;;;;0.60;0.53;;;;;;;;;;5042447;27;87235;-62
2022/09/26 02:10:40;;;;;;;0.60;0.40;;;;;;;;;;5042640;28;86248;-62
2022/09/26 02:13:09;;;;;;;0.40;0.40;;;;;;;;;;5041947;28;88969;-63
2022/09/26 02:15:38;;;;;;;0.43;0.43;;;;;;;;;;5039571;28;88877;-62
2022/09/26 02:18:08;;;;;;;0.60;0.60;;;;;;;;;;5040601;28;87971;-62
2022/09/26 02:20:38;;;;;;;0.63;0.63;;;;;;;;;;5040410;28;86962;-62
2022/09/26 02:23:07;;;;;;;0.50;0.50;;;;;;;;;;5038767;27;88795;-62
2022/09/26 02:25:36;;;;;;;0.50;0.30;;;;;;;;;;5040126;28;88964;-63
2022/09/26 02:28:04;;;;;;;0.43;0.43;;;;;;;;;;5040594;28;86912;-62
2022/09/26 02:30:32;;;;;;;0.83;0.50;;;;;;;;;;5040795;27;87103;-63
2022/09/26 02:33:01;;;;;;;0.93;0.57;;;;;;;;;;5040791;28;89248;-61
2022/09/26 02:38:16;;;;;;;0.50;0.40;;;;;;;;;;5040495;27;87091;-63
2022/09/26 02:40:47;;;;;;;1.23;0.60;;;;;;;;;;5054648;27;87111;-62
2022/09/26 02:43:27;;;;;;;0.50;0.50;;;;;;;;;;5039201;27;90080;-61
2022/09/26 02:45:58;;;;;;;0.37;0.37;;;;;;;;;;5040391;28;89676;-62
2022/09/26 02:48:31;;;;;;;0.77;0.57;;;;;;;;;;5050386;27;87007;-62
2022/09/26 02:51:04;;;;;;;0.40;0.40;;;;;;;;;;5040623;28;87215;-62
2022/09/26 02:53:44;;;;;;;3.70;0.60;;;;;;;;;;5046584;27;89273;-62
2022/09/26 02:56:14;;;;;;;0.40;0.40;;;;;;;;;;5039563;27;89118;-62
2022/09/26 02:58:46;;;;;;;0.80;0.50;;;;;;;;;;5040970;28;87067;-62
2022/09/26 03:01:14;;;;;;;0.43;0.40;;;;;;;;;;5040798;28;86686;-62
2022/09/26 03:03:43;;;;;;;2.13;0.50;;;;;;;;;;5044165;27;87992;-63
2022/09/26 03:06:13;;;;;;;1.40;0.60;;;;;;;;;;5061284;27;89049;-62
2022/09/26 03:08:43;;;;;;;0.33;0.33;;;;;;;;;;5056887;27;88148;-62
2022/09/26 03:11:12;;;;;;;0.30;0.30;;;;;;;;;;5045623;27;87119;-62
2022/09/26 03:13:40;;;;;;;0.57;0.57;;;;;;;;;;5059167;27;88795;-62
2022/09/26 03:16:08;;;;;;;0.60;0.47;;;;;;;;;;5040142;28;88776;-64
2022/09/26 03:18:39;;;;;;;1.60;0.77;;;;;;;;;;5040691;28;87368;-62
2022/09/26 03:21:07;;;;;;;0.53;0.53;;;;;;;;;;5041339;28;87080;-62
2022/09/26 03:23:35;;;;;;;1.17;0.40;;;;;;;;;;5040984;28;89104;-62
2022/09/26 03:26:05;;;;;;;0.30;0.30;;;;;;;;;;5040821;28;88684;-62
2022/09/26 03:28:33;;;;;;;0.33;0.33;;;;;;;;;;5040778;28;87141;-62
2022/09/26 03:31:06;;;;;;;0.90;0.63;;;;;;;;;;5033146;27;87079;-62
2022/09/26 03:33:34;;;;;;;0.60;0.43;;;;;;;;;;5044532;27;90587;-62
2022/09/26 03:36:04;;;;;;;0.70;0.70;;;;;;;;;;5041313;27;91922;-62
2022/09/26 03:38:32;;;;;;;0.40;0.40;;;;;;;;;;5040319;27;87509;-62
2022/09/26 03:41:01;;;;;;;1.23;0.67;;;;;;;;;;5038895;28;87005;-62
2022/09/26 03:43:31;;;;;;;1.27;0.50;;;;;;;;;;5059266;27;89271;-62
2022/09/26 03:46:02;;;;;;;0.77;0.60;;;;;;;;;;5053044;27;88632;-62
2022/09/26 03:48:31;;;;;;;0.37;0.37;;;;;;;;;;5044541;27;87008;-62
2022/09/26 03:51:02;;;;;;;0.37;0.37;;;;;;;;;;5044383;27;86625;-62
2022/09/26 03:53:31;;;;;;;0.50;0.50;;;;;;;;;;5043060;28;91926;-61
2022/09/26 03:56:03;;;;;;;0.47;0.47;;;;;;;;;;5040811;27;88695;-61
2022/09/26 03:58:32;;;;;;;2.43;0.50;;;;;;;;;;5042659;27;88003;-62
2022/09/26 04:01:04;;;;;;;0.50;0.50;;;;;;;;;;5055814;27;87027;-61
2022/09/26 04:03:33;;;;;;;0.40;0.40;;;;;;;;;;5043427;27;89169;-62
2022/09/26 04:06:02;;;;;;;0.30;0.30;;;;;;;;;;5063874;27;88611;-62
2022/09/26 04:08:30;;;;;;;0.53;0.40;;;;;;;;;;5065069;27;87048;-62
2022/09/26 04:11:02;;;;;;;0.50;0.50;;;;;;;;;;5062724;27;88699;-62
2022/09/26 04:13:32;;;;;;;0.30;0.30;;;;;;;;;;5064295;27;89091;-62
2022/09/26 04:16:19;;;;;;;0.30;0.30;;;;;;;;;;5043012;28;88877;-63
2022/09/26 04:18:48;;;;;;;0.50;0.50;;;;;;;;;;5055587;27;87073;-61
2022/09/26 04:21:16;;;;;;;0.20;0.20;;;;;;;;;;5063707;27;86930;-61
2022/09/26 04:23:44;;;;;;;0.47;0.47;;;;;;;;;;5060742;27;90026;-62
2022/09/26 04:26:14;;;;;;;0.20;0.20;;;;;;;;;;5060314;27;89169;-61
2022/09/26 04:28:51;;;;;;;0.30;0.30;;;;;;;;;;5060860;27;87868;-61
2022/09/26 04:31:20;;;;;;;0.40;0.40;;;;;;;;;;5063727;27;87114;-61
2022/09/26 04:33:48;;;;;;;0.30;0.30;;;;;;;;;;5063111;27;89115;-62
2022/09/26 04:36:17;;;;;;;0.70;0.70;;;;;;;;;;5061631;27;88905;-62
2022/09/26 04:38:45;;;;;;;0.70;0.47;;;;;;;;;;5063734;27;86973;-62
2022/09/26 04:41:14;;;;;;;0.40;0.40;;;;;;;;;;5063966;27;86113;-61
2022/09/26 04:43:43;;;;;;;0.63;0.50;;;;;;;;;;5063022;27;89184;-61
2022/09/26 04:46:13;;;;;;;0.50;0.50;;;;;;;;;;5062516;27;88714;-61
2022/09/26 04:48:48;;;;;;;0.60;0.60;;;;;;;;;;5062739;27;87971;-61
2022/09/26 04:51:17;;;;;;;0.40;0.40;;;;;;;;;;5062418;27;86949;-61
2022/09/26 04:53:45;;;;;;;0.50;0.33;;;;;;;;;;5062558;27;91836;-61
2022/09/26 04:56:13;;;;;;;0.40;0.40;;;;;;;;;;5061708;27;88895;-61
2022/09/26 04:58:42;;;;;;;0.40;0.40;;;;;;;;;;5062684;27;86862;-61
2022/09/26 05:01:11;;;;;;;0.30;0.30;;;;;;;;;;5063075;27;87118;-65
2022/09/26 05:03:40;;;;;;;0.50;0.50;;;;;;;;;;5062469;27;89255;-62
2022/09/26 05:06:09;;;;;;;0.67;0.50;;;;;;;;;;5063531;27;88823;-61
2022/09/26 05:08:37;;;;;;;0.60;0.60;;;;;;;;;;5063093;27;87004;-61
2022/09/26 05:11:06;;;;;;;0.50;0.50;;;;;;;;;;5055400;27;88089;-62
2022/09/26 05:13:34;;;;;;;0.83;0.70;;;;;;;;;;5029121;28;89878;-62
2022/09/26 05:16:02;;;;;;;1.40;0.87;;;;;;;;;;5042585;27;90022;-62
2022/09/26 05:18:31;;;;;;;2.03;0.80;;;;;;;;;;5040774;27;87266;-62
2022/09/26 05:21:04;;;;;;;1.40;1.13;;;;;;;;;;5040796;27;87166;-62
2022/09/26 05:26:21;;;;;;;2.03;1.40;;;;;;;;;;5046395;27;88926;-62
2022/09/26 05:28:49;;;;;;;3.83;1.73;;;;;;;;;;5035267;28;86953;-61
2022/09/26 05:31:18;;;;;;;2.77;1.47;;;;;;;;;;5044246;27;87781;-61
2022/09/26 05:33:46;;;;;;;2.13;1.67;;;;;;;;;;5060192;27;88528;-61
2022/09/26 05:36:16;;;;;;;5.63;2.17;;;;;;;;;;5062615;27;88573;-61
2022/09/26 05:38:45;;;;;;;2.00;1.47;;;;;;;;;;5042788;27;88234;-62
2022/09/26 05:41:13;;;;;;;4.77;2.40;;;;;;;;;;5041282;27;87183;-61
2022/09/26 05:43:41;;;;;;;4.13;2.43;;;;;;;;;;5040209;27;88951;-61
2022/09/26 05:46:10;;;;;;;3.47;2.40;;;;;;;;;;5046632;27;87736;-61
2022/09/26 05:48:39;;;;;;;3.77;2.43;;;;;;;;;;5044710;27;87089;-61
2022/09/26 05:51:09;;;;;;;3.10;2.70;;;;;;;;;;5043963;27;87015;-62
2022/09/26 05:53:39;;;;;;;6.50;3.60;;;;;;;;;;5042363;27;89131;-62
2022/09/26 05:56:07;;;;;;;5.43;3.07;;;;;;;;;;5043423;27;88821;-61
2022/09/26 05:58:36;;;;;;;4.27;3.17;;;;;;;;;;5039882;27;87065;-62
2022/09/26 06:01:05;;;;;;;4.10;2.80;;;;;;;;;;5045257;27;87144;-62
2022/09/26 06:03:34;;;;;;;8.53;3.80;;;;;;;;;;5040831;27;90521;-61
2022/09/26 06:06:03;;;;;;;6.80;3.83;;;;;;;;;;5054898;27;89225;-61
2022/09/26 06:08:31;;;;;;;6.00;3.57;;;;;;;;;;5060217;27;86978;-61
2022/09/26 06:11:02;;;;;;;5.40;3.63;;;;;;;;;;5061671;27;87073;-61
2022/09/26 06:13:30;;;;;;;9.90;4.37;;;;;;;;;;5061726;27;92068;-61
2022/09/26 06:16:02;;;;;;;9.83;5.63;;;;;;;;;;5061776;27;88581;-60
2022/09/26 06:18:30;;;;;;;9.10;4.83;;;;;;;;;;5061043;27;87082;-62
2022/09/26 06:21:01;;;;;;;6.67;4.40;;;;;;;;;;5061536;27;86284;-61
2022/09/26 06:23:29;;;;;;;8.37;5.33;;;;;;;;;;5057591;27;89148;-62
2022/09/26 06:25:57;;;;;;;10.27;5.00;;;;;;;;;;5060447;27;88869;-61
2022/09/26 06:28:27;;;;;;;5.60;4.23;;;;;;;;;;5059523;27;87928;-62
2022/09/26 06:30:56;;;;;;;8.07;5.07;;;;;;;;;;5059807;27;87170;-61
2022/09/26 06:33:24;;;;;;;7.07;4.33;;;;;;;;;;5059423;27;89098;-63
2022/09/26 06:36:01;;;;;;;5.73;4.33;;;;;;;;;;5050420;27;87911;-62
2022/09/26 06:38:29;;;;;;;11.10;4.77;;;;;;;;;;5060644;27;86952;-63
2022/09/26 06:40:57;;;;;;;9.77;5.13;;;;;;;;;;5060152;27;86984;-62
2022/09/26 06:43:25;;;;;;;9.43;4.53;;;;;;;;;;5060203;27;88741;-62
2022/09/26 06:45:55;;;;;;;10.33;5.83;;;;;;;;;;5056420;27;88798;-64
2022/09/26 06:48:24;;;;;;;7.67;4.83;;;;;;;;;;5060860;27;86902;-64
2022/09/26 06:50:53;;;;;;;8.87;5.10;;;;;;;;;;5059769;27;87038;-63
2022/09/26 06:53:21;;;;;;;7.20;4.80;;;;;;;;;;5058901;27;90074;-62
2022/09/26 06:55:49;;;;;;;8.23;4.27;;;;;;;;;;5047572;27;89840;-62
2022/09/26 06:58:17;;;;;;;7.17;4.63;;;;;;;;;;5060055;27;88884;-63
2022/09/26 07:00:46;;;;;;;8.93;4.73;;;;;;;;;;5060264;27;87082;-62
2022/09/26 07:03:16;;;;;;;6.60;4.37;;;;;;;;;;5059765;27;88976;-62
2022/09/26 07:05:44;;;;;;;8.73;4.13;;;;;;;;;;5055896;27;88696;-63
2022/09/26 07:08:12;;;;;;;8.67;4.00;;;;;;;;;;5039352;28;87027;-62
2022/09/26 07:10:41;;;;;;;8.17;4.90;;;;;;;;;;5039888;28;86327;-62
2022/09/26 07:13:10;;;;;;;5.63;3.87;;;;;;;;;;5043278;27;92340;-62
2022/09/26 07:15:39;;;;;;;6.73;3.87;;;;;;;;;;5038663;28;88728;-62
2022/09/26 07:18:07;;;;;;;5.10;3.50;;;;;;;;;;5039406;27;88158;-61
2022/09/26 07:20:39;;;;;;;9.37;4.77;;;;;;;;;;5044296;27;87373;-63
2022/09/26 07:23:08;;;;;;;8.43;3.57;;;;;;;;;;5044104;27;89173;-63
2022/09/26 07:25:38;;;;;;;8.93;4.90;;;;;;;;;;5064251;27;88359;-63
2022/09/26 07:28:07;;;;;;;6.73;4.13;;;;;;;;;;5056095;27;87005;-63
2022/09/26 07:30:35;;;;;;;12.67;4.30;;;;;;;;;;5043571;27;87218;-63
2022/09/26 07:33:03;;;;;;;7.03;4.63;;;;;;;;;;5042905;27;89125;-61
2022/09/26 07:35:31;;;;;;;21.30;13.20;;;;;;;;;;5042590;28;88836;-62
2022/09/26 07:38:02;;;;;;;38.63;18.07;;;;;;;;;;5041593;28;86905;-62
2022/09/26 07:40:30;;;;;;;27.43;14.63;;;;;;;;;;5042423;28;86922;-62
2022/09/26 07:42:59;;;;;;;17.37;9.73;;;;;;;;;;5040889;28;90261;-62
2022/09/26 07:51:19;;;;;;;11.50;8.10;;;;;;;;;;5043812;28;87032;-68
2022/09/26 07:53:49;;;;;;;12.60;7.00;;;;;;;;;;5041782;27;88302;-62
2022/09/26 07:56:17;;;;;;;11.17;5.80;;;;;;;;;;5043369;28;88681;-64
2022/09/26 07:58:45;;;;;;;11.50;6.97;;;;;;;;;;5043367;28;87138;-64
2022/09/26 08:01:14;;;;;;;10.13;4.70;;;;;;;;;;5044857;28;86486;-62
2022/09/26 08:03:43;;;;;;;9.07;5.13;;;;;;;;;;5056581;27;92456;-64
2022/09/26 08:06:13;;;;;;;7.73;5.00;;;;;;;;;;5049088;27;88944;-63
2022/09/26 08:08:41;;;;;;;8.17;4.43;;;;;;;;;;5051210;27;88026;-63
2022/09/26 08:11:15;;;;;;;8.33;5.30;;;;;;;;;;5047713;27;87021;-66
2022/09/26 08:13:44;;;;;;;10.63;4.80;;;;;;;;;;5043156;27;89240;-67
2022/09/26 08:16:22;;;;;;;8.47;4.87;;;;;;;;;;5043172;28;88684;-66
2022/09/26 08:18:50;;;;;;;10.30;5.13;;;;;;;;;;5043437;28;87557;-68
2022/09/26 08:21:19;;;;;;;10.57;6.23;;;;;;;;;;5043376;28;86926;-68
2022/09/26 08:23:47;;;;;;;8.73;4.73;;;;;;;;;;5042499;28;89082;-68
2022/09/26 08:26:22;;;;;;;8.03;4.83;;;;;;;;;;5044184;28;88054;-67
2022/09/26 08:28:50;;;;;;;9.27;4.83;;;;;;;;;;5040881;27;86989;-68
2022/09/26 08:31:19;;;;;;;5.50;4.00;;;;;;;;;;5043631;28;87010;-67
2022/09/26 08:33:47;;;;;;;11.27;4.70;;;;;;;;;;5058505;27;91531;-68
2022/09/26 08:36:16;;;;;;;6.40;4.43;;;;;;;;;;5045897;27;90647;-67
2022/09/26 08:38:44;;;;;;;7.63;4.60;;;;;;;;;;5042962;28;86925;-67
2022/09/26 08:41:18;;;;;;;6.70;4.57;;;;;;;;;;5043286;28;86921;-67
2022/09/26 08:43:54;;;;;;;7.17;4.37;;;;;;;;;;5043034;27;89232;-68
2022/09/26 08:46:41;;;;;;;7.70;4.43;;;;;;;;;;5044498;27;88426;-68
2022/09/26 08:49:24;;;;;;;6.47;3.27;;;;;;;;;;5044898;28;86778;-68
2022/09/26 08:51:53;;;;;;;4.83;3.60;;;;;;;;;;5042319;28;86251;-68
2022/09/26 08:54:33;;;;;;;4.73;3.83;;;;;;;;;;5042814;28;89191;-68
2022/09/26 08:57:04;;;;;;;12.33;3.70;;;;;;;;;;5041167;28;89067;-66
2022/09/26 08:59:34;;;;;;;10.50;5.13;;;;;;;;;;5042294;28;88071;-66
2022/09/26 09:02:03;;;;;;;6.03;3.40;;;;;;;;;;5042087;28;87526;-66
2022/09/26 09:04:34;;;;;;;5.73;3.47;;;;;;;;;;5041908;28;88926;-68
2022/09/26 09:07:04;;;;;;;8.97;4.20;;;;;;;;;;5042181;28;87498;-67
2022/09/26 09:09:33;;;;;;;4.13;3.40;;;;;;;;;;5038233;27;88618;-67
2022/09/26 09:12:07;;;;;;;7.73;3.53;;;;;;;;;;5036794;28;87094;-67
2022/09/26 09:14:40;;;;;;;6.57;3.90;;;;;;;;;;5041215;28;91814;-67
2022/09/26 09:17:12;;;;;;;7.00;3.27;;;;;;;;;;5042707;28;91781;-67
2022/09/26 09:19:43;;;;;;;7.60;4.93;;;;;;;;;;5042701;28;87003;-66
2022/09/26 09:22:16;;;;;;;6.63;3.47;;;;;;;;;;5042178;28;87126;-69
2022/09/26 09:27:39;;;;;;;4.67;3.17;;;;;;;;;;3857406;22;87600;-62
2022/09/26 09:30:29;;;;;;;5.07;3.63;;;;;;;;;;5036422;28;86959;-62
2022/09/26 09:32:58;;;;;;;9.53;3.70;;;;;;;;;;5042858;28;86861;-62
2022/09/26 09:35:29;;;;;;;4.07;3.43;;;;;;;;;;5042956;28;88340;-62
2022/09/26 09:37:58;;;;;;;7.37;3.87;;;;;;;;;;5042981;28;87906;-62
2022/09/26 09:40:27;;;;;;;5.87;3.20;;;;;;;;;;5042336;28;87080;-62
2022/09/26 09:42:59;;;;;;;4.93;2.97;;;;;;;;;;5031038;28;86240;-61
2022/09/26 09:45:29;;;;;;;4.90;3.43;;;;;;;;;;5035509;28;88559;-65
2022/09/26 09:47:58;;;;;;;4.93;3.03;;;;;;;;;;5042578;28;88420;-65
2022/09/26 09:50:30;;;;;;;4.17;2.83;;;;;;;;;;5041722;28;88092;-66
2022/09/26 09:53:04;;;;;;;6.60;3.00;;;;;;;;;;5040773;28;87087;-66
2022/09/26 09:55:36;;;;;;;8.30;3.77;;;;;;;;;;5041747;28;88907;-66
2022/09/26 09:58:12;;;;;;;14.20;3.37;;;;;;;;;;5042186;28;88872;-63
2022/09/26 10:00:46;;;;;;;4.93;3.30;;;;;;;;;;5036533;28;87145;-67
2022/09/26 10:03:25;;;;;;;5.70;3.40;;;;;;;;;;5040236;28;87071;-67
2022/09/26 10:06:08;;;;;;;4.17;3.03;;;;;;;;;;5041712;28;88419;-66
2022/09/26 10:09:07;;;;;;;6.67;4.07;;;;;;;;;;5042103;28;87339;-64
2022/09/26 10:11:56;;;;;;;3.67;2.57;;;;;;;;;;5043164;28;86758;-65
2022/09/26 10:14:28;;;;;;;7.67;2.53;;;;;;;;;;5042687;28;87019;-65
2022/09/26 10:17:12;;;;;;;4.63;3.47;;;;;;;;;;5044142;28;89668;-65
2022/09/26 10:19:42;;;;;;;7.80;3.53;;;;;;;;;;5042280;28;89670;-65
2022/09/26 10:22:12;;;;;;;6.10;3.40;;;;;;;;;;5042941;28;86930;-65
2022/09/26 10:24:40;;;;;;;4.70;2.73;;;;;;;;;;5043080;28;87059;-66
2022/09/26 10:27:15;;;;;;;6.40;3.33;;;;;;;;;;5042198;28;89155;-65
2022/09/26 10:29:47;;;;;;;4.20;3.27;;;;;;;;;;5043760;27;87729;-66
2022/09/26 10:32:15;;;;;;;5.73;3.70;;;;;;;;;;5063024;27;87029;-65
2022/09/26 10:34:44;;;;;;;3.70;2.40;;;;;;;;;;5062881;27;87304;-64
2022/09/26 10:37:23;;;;;;;4.93;2.80;;;;;;;;;;5061966;27;87850;-66
2022/09/26 10:42:45;;;;;;;5.13;3.03;;;;;;;;;;5036625;28;88024;-66
2022/09/26 10:45:16;;;;;;;5.67;2.87;;;;;;;;;;5042157;28;86897;-64
2022/09/26 10:47:45;;;;;;;3.60;2.67;;;;;;;;;;5041833;28;89282;-66
2022/09/26 10:50:15;;;;;;;3.83;2.60;;;;;;;;;;5041149;28;87525;-66
2022/09/26 10:52:45;;;;;;;5.00;3.20;;;;;;;;;;5043036;27;87129;-66
2022/09/26 10:55:15;;;;;;;4.40;2.57;;;;;;;;;;5045747;28;87120;-66
2022/09/26 10:57:44;;;;;;;5.00;2.77;;;;;;;;;;5045599;28;87995;-66
2022/09/26 11:00:18;;;;;;;5.53;3.37;;;;;;;;;;5045017;28;89246;-66
2022/09/26 11:02:46;;;;;;;4.40;3.10;;;;;;;;;;5045934;28;87177;-66
2022/09/26 11:08:01;;;;;;;2.77;2.07;;;;;;;;;;5024685;28;90216;-66
2022/09/26 11:10:31;;;;;;;4.30;2.23;;;;;;;;;;5024638;28;89844;-67
2022/09/26 11:13:01;;;;;;;4.87;2.80;;;;;;;;;;5025018;28;87111;-67
2022/09/26 11:15:31;;;;;;;4.87;3.13;;;;;;;;;;5024512;28;87040;-66
2022/09/26 11:17:59;;;;;;;3.20;2.80;;;;;;;;;;5028292;28;88036;-66
2022/09/26 11:20:39;;;;;;;3.03;2.30;;;;;;;;;;5031776;28;88755;-67
2022/09/26 11:23:17;;;;;;;4.03;2.30;;;;;;;;;;5031672;28;87068;-67
2022/09/26 11:25:49;;;;;;;5.77;2.50;;;;;;;;;;5029801;28;86553;-67
2022/09/26 11:28:25;;;;;;;4.63;2.80;;;;;;;;;;5042276;28;89122;-67
2022/09/26 11:30:57;;;;;;;3.20;2.90;;;;;;;;;;5035491;27;87670;-66
2022/09/26 11:33:27;;;;;;;3.07;2.40;;;;;;;;;;5041218;28;87806;-66
2022/09/26 11:35:59;;;;;;;2.97;2.57;;;;;;;;;;5044893;28;86903;-68
2022/09/26 11:38:37;;;;;;;3.40;2.27;;;;;;;;;;5044320;28;89369;-68
2022/09/26 11:41:08;;;;;;;2.40;2.17;;;;;;;;;;5044291;28;87384;-68
2022/09/26 11:43:38;;;;;;;5.43;2.70;;;;;;;;;;5043220;27;87196;-67
2022/09/26 11:46:16;;;;;;;3.90;2.37;;;;;;;;;;5044508;28;87029;-67
2022/09/26 11:48:48;;;;;;;3.60;1.83;;;;;;;;;;5044782;28;88991;-68
2022/09/26 11:51:19;;;;;;;4.00;2.03;;;;;;;;;;5041854;28;88852;-68
2022/09/26 11:53:52;;;;;;;3.10;1.70;;;;;;;;;;5044258;28;87079;-68
2022/09/26 11:56:26;;;;;;;3.17;2.47;;;;;;;;;;5043995;28;86912;-68
2022/09/26 11:58:58;;;;;;;3.73;1.97;;;;;;;;;;5044103;28;89774;-67
2022/09/26 12:01:37;;;;;;;2.50;1.87;;;;;;;;;;5044477;28;90144;-67
2022/09/26 12:04:17;;;;;;;1.87;1.63;;;;;;;;;;5044033;27;87125;-67
2022/09/26 12:06:48;;;;;;;4.93;2.67;;;;;;;;;;5044495;28;87045;-68
2022/09/26 12:09:21;;;;;;;2.97;2.20;;;;;;;;;;5044697;28;88656;-68
2022/09/26 12:11:52;;;;;;;3.23;2.07;;;;;;;;;;5044021;28;88967;-68
2022/09/26 12:14:28;;;;;;;2.70;2.03;;;;;;;;;;5044549;28;87118;-68
2022/09/26 12:17:00;;;;;;;2.70;1.43;;;;;;;;;;5044684;28;86172;-68
2022/09/26 12:19:30;;;;;;;2.40;1.63;;;;;;;;;;5043893;28;88059;-68
2022/09/26 12:24:50;;;;;;;3.07;1.90;;;;;;;;;;5043918;28;87988;-69
2022/09/26 12:27:20;;;;;;;2.93;2.10;;;;;;;;;;5044065;28;87055;-68
2022/09/26 12:29:51;;;;;;;3.87;2.77;;;;;;;;;;5042165;28;87991;-67
2022/09/26 12:32:24;;;;;;;3.00;2.50;;;;;;;;;;5043900;28;88825;-68
2022/09/26 12:35:08;;;;;;;3.40;3.03;;;;;;;;;;5044197;28;86853;-67
2022/09/26 12:37:57;;;;;;;4.00;2.57;;;;;;;;;;5044309;28;86837;-68
2022/09/26 12:40:28;;;;;;;5.30;2.40;;;;;;;;;;5043864;28;89025;-67
2022/09/26 12:43:04;;;;;;;4.83;3.40;;;;;;;;;;5044239;28;88671;-67
2022/09/26 12:45:43;;;;;;;7.63;2.73;;;;;;;;;;5044421;28;86870;-67
2022/09/26 12:48:38;;;;;;;5.93;3.10;;;;;;;;;;5043809;28;87071;-66
2022/09/26 12:51:09;;;;;;;6.33;3.93;;;;;;;;;;5042324;28;89905;-66
2022/09/26 12:53:52;;;;;;;7.40;4.77;;;;;;;;;;5043655;28;89529;-67
2022/09/26 12:56:22;;;;;;;6.20;3.90;;;;;;;;;;5020485;28;87121;-67
2022/09/26 12:58:57;;;;;;;4.90;3.67;;;;;;;;;;5041946;28;86964;-66
2022/09/26 13:01:31;;;;;;;10.23;4.53;;;;;;;;;;5043475;28;87812;-67
2022/09/26 13:04:04;;;;;;;7.73;4.90;;;;;;;;;;5040992;28;88910;-66
2022/09/26 13:06:44;;;;;;;10.63;4.07;;;;;;;;;;5043187;27;86964;-67
2022/09/26 13:09:39;;;;;;;6.07;4.17;;;;;;;;;;5035338;28;86460;-66
2022/09/26 13:12:11;;;;;;;6.60;4.10;;;;;;;;;;5032865;28;89096;-66
2022/09/26 13:14:43;;;;;;;5.57;3.40;;;;;;;;;;5042342;28;89029;-66
2022/09/26 13:17:12;;;;;;;5.53;3.90;;;;;;;;;;5039744;28;88105;-66
2022/09/26 13:19:47;;;;;;;5.60;4.20;;;;;;;;;;5044449;28;87016;-66
2022/09/26 13:22:27;;;;;;;4.30;3.50;;;;;;;;;;5042691;28;87767;-66
2022/09/26 13:24:57;;;;;;;3.93;3.43;;;;;;;;;;5042760;28;88923;-66
2022/09/26 13:27:28;;;;;;;6.93;4.50;;;;;;;;;;5035851;28;87077;-66
2022/09/26 13:30:04;;;;;;;4.63;3.80;;;;;;;;;;5034389;28;87097;-67
2022/09/26 13:32:37;;;;;;;6.60;4.00;;;;;;;;;;5040554;28;88268;-67
2022/09/26 13:35:08;;;;;;;9.67;4.60;;;;;;;;;;5031866;28;90212;-67
2022/09/26 13:37:38;;;;;;;5.70;4.03;;;;;;;;;;5042562;28;87038;-68
2022/09/26 13:40:10;;;;;;;5.67;3.97;;;;;;;;;;5043553;28;86867;-68
2022/09/26 13:42:39;;;;;;;5.03;3.77;;;;;;;;;;5041992;28;90383;-67
2022/09/26 13:45:09;;;;;;;6.00;3.90;;;;;;;;;;5041608;28;89824;-67
2022/09/26 13:47:48;;;;;;;4.63;3.67;;;;;;;;;;5031364;27;87022;-68
2022/09/26 13:50:22;;;;;;;6.40;4.30;;;;;;;;;;5043147;28;86922;-67
2022/09/26 13:53:01;;;;;;;6.83;3.93;;;;;;;;;;5042295;28;88343;-67
2022/09/26 13:55:31;;;;;;;5.67;3.40;;;;;;;;;;5042084;28;88967;-66
2022/09/26 13:58:05;;;;;;;3.20;2.87;;;;;;;;;;5042512;28;87170;-66
2022/09/26 14:00:40;;;;;;;5.53;3.67;;;;;;;;;;5042908;28;86277;-67
2022/09/26 14:03:27;;;;;;;4.70;3.37;;;;;;;;;;5041962;28;90084;-67
2022/09/26 14:06:07;;;;;;;5.67;4.33;;;;;;;;;;5040833;28;91574;-67
2022/09/26 14:11:47;;;;;;;6.43;3.67;;;;;;;;;;5033953;28;87137;-66
2022/09/26 14:14:23;;;;;;;4.10;3.23;;;;;;;;;;5041580;28;89489;-67
2022/09/26 14:16:52;;;;;;;7.37;5.60;;;;;;;;;;5042122;28;88150;-66
2022/09/26 14:19:21;;;;;;;5.13;3.50;;;;;;;;;;5041454;28;86976;-67
2022/09/26 14:22:01;;;;;;;7.67;4.30;;;;;;;;;;5041260;28;86981;-67
2022/09/26 14:24:30;;;;;;;6.73;4.50;;;;;;;;;;5038349;28;94364;-68
2022/09/26 14:27:14;;;;;;;12.50;4.57;;;;;;;;;;5033399;27;94675;-68
2022/09/26 14:29:44;;;;;;;6.30;5.17;;;;;;;;;;5003541;28;92141;-67
2022/09/26 14:32:16;;;;;;;7.47;4.00;;;;;;;;;;5028639;28;92126;-68
2022/09/26 14:34:44;;;;;;;8.60;5.17;;;;;;;;;;5021884;28;94062;-67
2022/09/26 14:37:27;;;;;;;6.40;4.27;;;;;;;;;;5019824;28;94368;-67
2022/09/26 14:40:01;;;;;;;9.17;5.20;;;;;;;;;;5019376;28;91861;-67
2022/09/26 14:42:30;;;;;;;9.20;4.87;;;;;;;;;;5019171;28;92032;-67
2022/09/26 14:45:02;;;;;;;6.00;4.90;;;;;;;;;;5037101;28;94176;-67
2022/09/26 14:47:31;;;;;;;16.27;6.00;;;;;;;;;;5039123;28;93879;-67
2022/09/26 14:50:00;;;;;;;11.17;6.03;;;;;;;;;;5039909;28;92017;-67
2022/09/26 14:52:30;;;;;;;9.43;6.10;;;;;;;;;;5039627;28;91151;-66
2022/09/26 14:54:59;;;;;;;8.83;5.87;;;;;;;;;;5038522;28;94154;-66
2022/09/26 14:57:29;;;;;;;8.17;5.87;;;;;;;;;;5038541;28;93909;-66
2022/09/26 14:59:58;;;;;;;6.80;5.57;;;;;;;;;;5018976;28;92971;-66
2022/09/26 15:02:27;;;;;;;11.70;6.70;;;;;;;;;;5019388;28;92012;-66
2022/09/26 15:05:03;;;;;;;10.77;6.27;;;;;;;;;;5018781;28;93338;-66
2022/09/26 15:07:35;;;;;;;11.27;6.83;;;;;;;;;;5019138;28;93973;-66
2022/09/26 15:10:09;;;;;;;9.70;6.10;;;;;;;;;;5019230;28;92063;-66
2022/09/26 15:12:38;;;;;;;11.00;6.03;;;;;;;;;;5027331;28;91986;-67
2022/09/26 15:15:09;;;;;;;9.73;6.47;;;;;;;;;;5037523;28;94299;-67
2022/09/26 15:17:40;;;;;;;10.83;6.27;;;;;;;;;;5034556;28;92914;-66
2022/09/26 15:20:11;;;;;;;10.13;6.17;;;;;;;;;;5025343;28;91921;-67
2022/09/26 15:22:42;;;;;;;9.80;6.47;;;;;;;;;;5033874;28;92068;-66
2022/09/26 15:25:13;;;;;;;14.53;8.27;;;;;;;;;;5037723;28;95278;-67
2022/09/26 15:27:43;;;;;;;9.87;6.10;;;;;;;;;;5038634;28;95109;-66
2022/09/26 15:30:16;;;;;;;11.73;6.70;;;;;;;;;;5039164;28;92090;-65